Time;durP1;ratioP1;P1;durP2;ratioP2;P2;SDS_P1;SDS_P2;PMS_P1;PMS_P2;Temp;Humidity;BMP_temperature;BMP_pressure;BME280_temperature;BME280_humidity;BME280_pressure;Samples;Min_cycle;Max_cycle;Signal;HPM_P1;HPM_P2
2022/10/13 00:01:23;;;;;;;20.55;9.45;;;;;;;9.01;100.00;101922.28;5101628;28;20052;-80
2022/10/13 00:03:52;;;;;;;23.48;10.13;;;;;;;9.00;100.00;101918.78;5096050;28;20054;-79
2022/10/13 00:06:23;;;;;;;;;;;;;;;9.00;100.00;101913.53;5029327;28;20039;-79
2022/10/13 00:08:52;;;;;;;19.55;9.90;;;;;;;9.01;100.00;101920.53;5100958;28;19931;-80
2022/10/13 00:11:30;;;;;;;20.88;9.82;;;;;;;9.00;100.00;101920.50;5094911;28;20035;-80
2022/10/13 00:14:01;;;;;;;23.92;9.63;;;;;;;9.01;100.00;101910.03;5080141;28;20043;-80
2022/10/13 00:16:31;;;;;;;22.42;10.60;;;;;;;9.03;100.00;101904.81;5082222;28;20028;-79
2022/10/13 00:19:00;;;;;;;16.77;9.25;;;;;;;9.03;100.00;101902.19;5129767;27;20035;-78
2022/10/13 00:21:28;;;;;;;19.75;10.10;;;;;;;9.04;100.00;101896.09;5056117;27;20606;-78
2022/10/13 00:23:57;;;;;;;20.60;10.68;;;;;;;9.04;100.00;101889.09;5113719;27;20407;-78
2022/10/13 00:26:26;;;;;;;22.90;10.38;;;;;;;9.04;100.00;101893.47;5092184;27;20427;-80
2022/10/13 00:28:55;;;;;;;14.07;9.90;;;;;;;9.06;100.00;101897.03;5108176;27;20058;-78
2022/10/13 00:31:29;;;;;;;19.30;10.05;;;;;;;9.06;100.00;101894.41;5113581;27;20066;-79
2022/10/13 00:34:00;;;;;;;17.55;10.23;;;;;;;9.07;100.00;101890.91;5113928;27;20039;-79
2022/10/13 00:36:29;;;;;;;24.35;11.32;;;;;;;9.08;100.00;101892.69;5084178;27;20066;-79
2022/10/13 00:38:57;;;;;;;22.10;11.10;;;;;;;9.08;100.00;101892.69;5057252;27;20048;-79
2022/10/13 00:41:27;;;;;;;19.83;11.85;;;;;;;9.09;100.00;101878.69;5070535;27;20039;-79
2022/10/13 00:44:26;;;;;;;22.65;11.75;;;;;;;9.11;100.00;101876.97;5102681;27;20035;-79
2022/10/13 00:46:55;;;;;;;16.52;10.65;;;;;;;9.12;100.00;101886.66;5111608;27;20055;-79
2022/10/13 00:49:23;;;;;;;21.40;10.88;;;;;;;9.13;100.00;101886.69;5094651;28;20047;-80
2022/10/13 00:51:51;;;;;;;16.27;10.38;;;;;;;9.14;100.00;101893.72;5103614;28;20051;-79
2022/10/13 00:54:23;;;;;;;22.40;11.82;;;;;;;9.15;100.00;101889.38;5088576;27;20491;-80
2022/10/13 00:56:53;;;;;;;22.05;11.68;;;;;;;9.17;100.00;101885.03;5086646;27;20054;-79
2022/10/13 00:59:27;;;;;;;19.60;11.20;;;;;;;9.17;100.00;101885.94;5126518;27;20039;-80
2022/10/13 01:01:58;;;;;;;21.08;11.10;;;;;;;9.18;100.00;101882.44;5098830;27;20368;-79
2022/10/13 01:04:33;;;;;;;21.10;11.55;;;;;;;9.20;100.00;101889.47;5100264;28;20054;-78
2022/10/13 01:07:05;;;;;;;20.50;11.27;;;;;;;9.21;100.00;101872.88;5110375;27;20142;-78
2022/10/13 01:09:36;;;;;;;19.40;10.60;;;;;;;9.21;100.00;101879.00;5049965;27;20039;-78
2022/10/13 01:12:31;;;;;;;23.75;11.10;;;;;;;9.21;100.00;101881.63;5108209;28;20042;-78
2022/10/13 01:15:20;;;;;;;22.42;11.38;;;;;;;9.22;100.00;101870.25;5096555;27;20368;-77
2022/10/13 01:17:54;;;;;;;25.05;11.98;;;;;;;9.22;100.00;101870.25;5099465;28;20054;-79
2022/10/13 01:21:00;;;;;;;21.60;11.55;;;;;;;9.23;100.00;101855.38;5103471;28;20401;-79
2022/10/13 01:23:54;;;;;;;21.75;11.52;;;;;;;9.23;100.00;101858.00;5110833;27;20156;-80
2022/10/13 01:26:47;;;;;;;22.05;11.02;;;;;;;9.23;100.00;101853.63;5061635;27;20058;-79
2022/10/13 01:29:45;;;;;;;22.70;11.98;;;;;;;9.24;100.00;101855.38;5104139;28;20047;-79
2022/10/13 01:32:34;;;;;;;18.13;11.45;;;;;;;9.25;100.00;101856.31;5078339;28;20051;-79
2022/10/13 01:35:15;;;;;;;21.77;12.70;;;;;;;9.24;100.00;101849.25;5125523;27;20046;-78
2022/10/13 01:37:47;;;;;;;;;;;;;;;9.24;100.00;101841.34;5128843;27;20069;-78
2022/10/13 01:40:29;;;;;;;26.40;10.75;;;;;;;9.23;100.00;101843.09;5074256;27;19919;-79
2022/10/13 01:43:15;;;;;;;24.33;11.40;;;;;;;9.23;100.00;101839.59;5109209;27;20054;-79
2022/10/13 01:45:52;;;;;;;19.77;11.93;;;;;;;9.23;100.00;101832.59;5090014;28;20452;-78
2022/10/13 01:48:23;;;;;;;20.88;12.23;;;;;;;9.23;100.00;101827.31;5095051;27;20043;-80
2022/10/13 01:50:53;;;;;;;24.42;12.00;;;;;;;9.22;100.00;101825.53;5093594;27;20058;-79
2022/10/13 01:53:22;;;;;;;28.30;13.10;;;;;;;9.24;100.00;101828.22;5108841;27;20415;-78
2022/10/13 01:55:56;;;;;;;25.33;12.52;;;;;;;9.23;100.00;101819.44;5075746;28;20643;-80
2022/10/13 01:58:28;;;;;;;22.58;13.27;;;;;;;9.23;100.00;101821.19;5094670;28;20052;-78
2022/10/13 02:01:23;;;;;;;22.73;13.05;;;;;;;9.23;100.00;101818.56;5128749;27;20490;-79
2022/10/13 02:04:05;;;;;;;23.63;12.35;;;;;;;9.22;100.00;101820.28;5122225;27;20050;-79
2022/10/13 02:06:41;;;;;;;21.23;12.50;;;;;;;9.23;100.00;101811.53;5096047;27;20043;-79
2022/10/13 02:09:17;;;;;;;19.40;12.20;;;;;;;9.23;100.00;101806.28;5093120;27;20043;-80
2022/10/13 02:11:52;;;;;;;25.02;12.23;;;;;;;9.23;100.00;101803.66;5094930;27;20043;-79
2022/10/13 02:14:26;;;;;;;21.88;12.30;;;;;;;9.23;100.00;101798.41;5079200;28;20063;-78
2022/10/13 02:16:59;;;;;;;27.95;13.40;;;;;;;9.21;100.00;101794.84;5127013;27;20523;-79
2022/10/13 02:19:28;;;;;;;20.60;13.05;;;;;;;9.23;100.00;101792.25;5093169;27;20040;-79
2022/10/13 02:21:57;;;;;;;19.77;13.02;;;;;;;9.22;100.00;101782.56;5087168;28;20521;-79
2022/10/13 02:24:28;;;;;;;;;;;;;;;9.22;100.00;101788.72;5102611;27;20051;-79
2022/10/13 02:26:56;;;;;;;22.30;13.30;;;;;;;9.23;100.00;101785.25;5072022;28;19920;-79
2022/10/13 02:29:25;;;;;;;19.90;12.13;;;;;;;9.23;100.00;101792.25;5092832;28;20058;-79
2022/10/13 02:31:53;;;;;;;22.60;12.93;;;;;;;9.24;100.00;101794.91;5092074;27;20056;-79
2022/10/13 02:34:22;;;;;;;19.95;13.00;;;;;;;9.25;100.00;101795.81;5093058;27;20044;-79
2022/10/13 02:36:50;;;;;;;26.55;13.63;;;;;;;9.26;100.00;101793.22;5107295;27;20392;-80
2022/10/13 02:39:18;;;;;;;20.90;11.82;;;;;;;9.27;100.00;101796.72;5116863;27;20047;-79
2022/10/13 02:41:47;;;;;;;26.95;12.15;;;;;;;9.27;100.00;101792.34;5063397;27;20024;-79
2022/10/13 02:44:16;;;;;;;19.98;12.15;;;;;;;9.28;100.00;101788.88;5081595;27;20065;-80
2022/10/13 02:46:44;;;;;;;25.33;14.57;;;;;;;9.29;100.00;101787.13;5107665;27;20262;-79
2022/10/13 02:49:12;;;;;;;24.42;12.38;;;;;;;9.30;100.00;101784.56;5104596;28;20059;-79
2022/10/13 02:51:41;;;;;;;20.75;12.82;;;;;;;9.30;100.00;101786.25;5081597;27;20035;-79
2022/10/13 02:54:09;;;;;;;19.35;12.30;;;;;;;9.31;100.00;101786.31;5095595;27;20039;-79
2022/10/13 02:56:38;;;;;;;26.90;12.38;;;;;;;9.31;100.00;101791.56;5089531;27;20559;-79
2022/10/13 02:59:06;;;;;;;21.10;12.48;;;;;;;9.30;100.00;101776.66;5056756;27;20058;-80
2022/10/13 03:01:39;;;;;;;22.02;12.30;;;;;;;9.30;100.00;101765.22;5080671;28;20046;-79
2022/10/13 03:04:08;;;;;;;24.65;12.95;;;;;;;9.29;100.00;101755.56;5091205;27;20051;-81
2022/10/13 03:06:37;;;;;;;19.95;12.00;;;;;;;9.29;100.00;101769.59;5096924;28;20039;-80
2022/10/13 03:09:06;;;;;;;24.60;13.35;;;;;;;9.28;100.00;101773.09;5096720;28;20055;-81
2022/10/13 03:11:35;;;;;;;23.08;12.50;;;;;;;9.28;100.00;101762.59;5122878;27;20267;-78
2022/10/13 03:14:04;;;;;;;26.58;12.68;;;;;;;9.27;100.00;101773.94;5074925;27;20051;-78
2022/10/13 03:16:32;;;;;;;23.67;12.43;;;;;;;9.27;100.00;101771.31;5102548;28;20236;-78
2022/10/13 03:19:00;;;;;;;20.38;12.23;;;;;;;9.26;100.00;101780.06;5071569;28;20040;-80
2022/10/13 03:21:29;;;;;;;19.17;12.43;;;;;;;9.24;100.00;101775.59;5083266;28;20039;-78
2022/10/13 03:23:57;;;;;;;20.95;12.50;;;;;;;9.23;100.00;101782.63;5104550;27;20047;-78
2022/10/13 03:26:27;;;;;;;23.33;12.43;;;;;;;9.23;100.00;101781.75;5105395;27;20515;-78
2022/10/13 03:28:56;;;;;;;23.27;12.02;;;;;;;9.22;100.00;101779.94;5067799;28;20052;-79
2022/10/13 03:31:25;;;;;;;26.38;13.93;;;;;;;9.20;100.00;101772.00;5081090;27;20042;-80
2022/10/13 03:34:02;;;;;;;21.92;11.52;;;;;;;9.21;100.00;101770.28;5112853;27;20043;-79
2022/10/13 03:36:30;;;;;;;21.63;11.73;;;;;;;9.20;100.00;101769.38;5105483;27;20651;-79
2022/10/13 03:38:59;;;;;;;23.35;13.07;;;;;;;9.20;100.00;101768.50;5090837;28;20042;-79
2022/10/13 03:41:27;;;;;;;24.23;12.55;;;;;;;9.19;100.00;101767.63;5122773;27;20051;-79
2022/10/13 03:43:56;;;;;;;23.50;12.93;;;;;;;9.20;100.00;101761.50;5089340;27;20048;-80
2022/10/13 03:46:27;;;;;;;26.40;12.32;;;;;;;9.20;100.00;101761.50;5122773;27;20271;-80
2022/10/13 03:48:57;;;;;;;25.52;11.88;;;;;;;9.20;100.00;101761.50;5126700;27;20043;-80
2022/10/13 03:51:26;;;;;;;25.38;12.73;;;;;;;9.21;100.00;101765.03;5104938;28;20232;-78
2022/10/13 03:53:55;;;;;;;25.08;12.88;;;;;;;9.21;100.00;101768.53;5101927;28;20046;-78
2022/10/13 03:56:25;;;;;;;25.00;12.77;;;;;;;9.20;100.00;101769.38;5081966;28;20043;-79
2022/10/13 03:58:58;;;;;;;25.70;12.85;;;;;;;9.20;100.00;101764.13;5084753;28;20044;-78
2022/10/13 04:01:31;;;;;;;22.23;13.68;;;;;;;9.20;100.00;101768.50;5067518;27;20266;-79
2022/10/13 04:04:03;;;;;;;27.38;14.32;;;;;;;9.20;100.00;101761.50;5104935;28;20047;-79
2022/10/13 04:06:31;;;;;;;24.02;12.85;;;;;;;9.18;100.00;101764.09;5060991;27;20258;-79
2022/10/13 04:09:02;;;;;;;20.05;13.82;;;;;;;9.20;100.00;101764.13;5086241;28;20496;-78
2022/10/13 04:11:31;;;;;;;30.63;13.63;;;;;;;9.21;100.00;101765.03;5114609;27;20164;-78
2022/10/13 04:13:59;;;;;;;21.75;14.50;;;;;;;9.22;100.00;101758.91;5073640;28;20039;-78
2022/10/13 04:16:29;;;;;;;26.40;15.23;;;;;;;9.23;100.00;101760.69;5054160;28;20261;-78
2022/10/13 04:19:02;;;;;;;30.25;16.65;;;;;;;9.23;100.00;101755.44;5103790;28;20490;-78
2022/10/13 04:21:33;;;;;;;28.55;16.13;;;;;;;9.24;100.00;101758.06;5099549;28;20028;-79
2022/10/13 04:24:02;;;;;;;22.42;14.68;;;;;;;9.25;100.00;101743.22;5108578;28;20047;-79
2022/10/13 04:26:34;;;;;;;23.75;14.07;;;;;;;9.25;100.00;101740.59;5127212;27;20066;-78
2022/10/13 04:29:08;;;;;;;28.17;15.50;;;;;;;9.26;100.00;101739.72;5116644;27;20535;-79
2022/10/13 04:31:38;;;;;;;23.70;15.27;;;;;;;9.25;100.00;101736.19;5051881;28;20045;-79
2022/10/13 04:34:06;;;;;;;25.88;15.73;;;;;;;9.27;100.00;101739.75;5107795;28;20043;-79
2022/10/13 04:36:35;;;;;;;30.15;15.98;;;;;;;9.26;100.00;101723.94;5087517;28;20404;-78
2022/10/13 04:39:04;;;;;;;26.85;16.23;;;;;;;9.25;100.00;101723.06;5088922;28;20052;-78
2022/10/13 04:41:33;;;;;;;34.15;16.67;;;;;;;9.26;100.00;101719.59;5086487;28;20367;-78
2022/10/13 04:44:02;;;;;;;30.13;17.23;;;;;;;9.28;100.00;101714.31;5094171;28;20260;-79
2022/10/13 04:46:30;;;;;;;30.60;17.60;;;;;;;9.29;100.00;101718.75;5043509;28;20044;-79
2022/10/13 04:49:00;;;;;;;29.98;17.20;;;;;;;9.28;100.00;101709.97;5077535;28;20279;-78
2022/10/13 04:51:32;;;;;;;29.88;16.80;;;;;;;9.28;100.00;101715.25;5104703;28;20044;-79
2022/10/13 04:54:01;;;;;;;30.35;18.40;;;;;;;9.29;100.00;101714.38;5079846;28;20046;-78
2022/10/13 04:56:31;;;;;;;24.17;16.20;;;;;;;9.28;100.00;101709.97;5089545;28;20048;-79
2022/10/13 04:59:04;;;;;;;28.02;16.40;;;;;;;9.28;100.00;101702.09;5093602;28;20599;-80
2022/10/13 05:01:34;;;;;;;24.42;16.88;;;;;;;9.29;100.00;101714.38;5092928;28;20401;-79
2022/10/13 05:04:08;;;;;;;30.55;18.00;;;;;;;9.29;100.00;101705.59;5077641;28;20074;-79
2022/10/13 05:06:40;;;;;;;29.60;18.33;;;;;;;9.29;100.00;101700.34;5097701;28;20044;-78
2022/10/13 05:09:28;;;;;;;29.63;18.65;;;;;;;9.29;100.00;101706.47;5099358;28;20036;-78
2022/10/13 05:11:56;;;;;;;34.20;19.00;;;;;;;9.30;100.00;101704.72;5066606;28;20051;-78
2022/10/13 05:14:25;;;;;;;33.13;17.35;;;;;;;9.31;100.00;101699.50;5113013;27;20525;-78
2022/10/13 05:16:54;;;;;;;29.55;19.55;;;;;;;9.32;100.00;101695.16;5086385;28;20511;-78
2022/10/13 05:19:22;;;;;;;30.35;18.48;;;;;;;9.31;100.00;101688.09;5058060;28;20056;-78
2022/10/13 05:21:52;;;;;;;30.50;19.83;;;;;;;9.32;100.00;101696.03;5093611;28;20050;-78
2022/10/13 05:24:29;;;;;;;31.27;19.48;;;;;;;9.31;100.00;101694.25;5097939;28;20047;-78
2022/10/13 05:26:58;;;;;;;34.83;19.98;;;;;;;9.31;100.00;101694.25;5078648;28;20355;-78
2022/10/13 05:29:26;;;;;;;33.35;20.13;;;;;;;9.33;100.00;101704.81;5066522;28;20051;-78
2022/10/13 05:31:55;;;;;;;36.28;19.85;;;;;;;9.33;100.00;101708.31;5104032;28;20078;-78
2022/10/13 05:34:23;;;;;;;30.80;18.60;;;;;;;9.34;100.00;101706.59;5043998;28;20040;-78
2022/10/13 05:36:52;;;;;;;32.20;19.38;;;;;;;9.33;100.00;101697.78;5110752;27;20078;-78
2022/10/13 05:39:20;;;;;;;34.80;21.48;;;;;;;9.34;100.00;101704.84;5086782;28;20530;-80
2022/10/13 05:41:49;;;;;;;35.83;21.52;;;;;;;9.34;100.00;101711.84;5095253;27;20044;-79
2022/10/13 05:44:20;;;;;;;39.80;22.17;;;;;;;9.34;100.00;101702.22;5107650;27;20491;-79
2022/10/13 05:46:55;;;;;;;36.30;20.67;;;;;;;9.34;100.00;101702.22;5078308;27;20063;-79
2022/10/13 05:49:24;;;;;;;38.92;21.98;;;;;;;9.34;100.00;101704.84;5070534;28;20043;-81
2022/10/13 05:51:59;;;;;;;31.70;18.77;;;;;;;9.33;100.00;101696.91;5094587;27;20059;-78
2022/10/13 05:55:04;;;;;;;36.42;20.70;;;;;;;9.33;100.00;101691.66;5082705;28;20036;-78
2022/10/13 05:57:37;;;;;;;36.38;21.23;;;;;;;9.32;100.00;101693.41;5044178;28;20545;-78
2022/10/13 06:00:27;;;;;;;41.72;21.38;;;;;;;9.32;100.00;101690.78;5110288;27;20051;-77
2022/10/13 06:03:04;;;;;;;40.90;22.10;;;;;;;9.31;100.00;101689.00;5096226;28;20396;-79
2022/10/13 06:05:33;;;;;;;39.85;21.92;;;;;;;9.31;100.00;101690.75;5074523;27;20300;-79
2022/10/13 06:08:04;;;;;;;36.33;21.65;;;;;;;9.31;100.00;101688.09;5068030;28;20039;-79
2022/10/13 06:10:36;;;;;;;40.15;21.83;;;;;;;9.32;100.00;101682.00;5106370;28;20035;-79
2022/10/13 06:13:04;;;;;;;35.30;20.65;;;;;;;9.31;100.00;101675.84;5097242;28;20034;-79
2022/10/13 06:15:33;;;;;;;43.17;22.08;;;;;;;9.32;100.00;101664.47;5071849;28;20035;-79
2022/10/13 06:18:01;;;;;;;38.40;21.77;;;;;;;9.34;100.00;101664.50;5085845;28;20051;-77
2022/10/13 06:20:29;;;;;;;37.20;22.20;;;;;;;9.34;100.00;101664.50;5066264;27;20051;-79
2022/10/13 06:22:58;;;;;;;41.88;23.27;;;;;;;9.35;100.00;101658.38;5111735;27;20035;-79
2022/10/13 06:25:28;;;;;;;40.88;22.38;;;;;;;9.35;100.00;101653.13;5093829;28;20039;-79
2022/10/13 06:27:59;;;;;;;;;;;;;;;9.36;100.00;101654.91;5085342;28;20388;-78
2022/10/13 06:30:27;;;;;;;38.42;22.25;;;;;;;9.36;100.00;101658.41;5098615;27;19919;-81
2022/10/13 06:32:56;;;;;;;36.05;21.75;;;;;;;9.41;100.00;101660.25;5091871;27;20511;-79
2022/10/13 06:35:24;;;;;;;37.55;23.13;;;;;;;9.42;100.00;101669.94;5108098;27;20388;-79
2022/10/13 06:37:53;;;;;;;43.00;23.23;;;;;;;9.44;100.00;101662.97;5088841;27;20055;-78
2022/10/13 06:40:24;;;;;;;;;;;;;;;9.44;100.00;101662.97;5095306;28;20047;-78
2022/10/13 06:42:53;;;;;;;44.22;23.70;;;;;;;9.45;100.00;101664.72;5089500;27;20507;-78
2022/10/13 06:45:23;;;;;;;49.40;24.70;;;;;;;9.45;100.00;101664.72;5086707;27;20031;-80
2022/10/13 06:47:53;;;;;;;39.42;25.38;;;;;;;9.47;100.00;101668.25;5096239;27;20051;-79
2022/10/13 06:50:22;;;;;;;46.97;24.48;;;;;;;9.48;100.00;101660.41;5097632;27;20043;-79
2022/10/13 06:52:55;;;;;;;43.47;24.70;;;;;;;9.51;100.00;101664.88;5055401;28;20070;-79
2022/10/13 06:55:24;;;;;;;45.08;26.02;;;;;;;9.53;100.00;101658.75;5083027;27;20047;-80
2022/10/13 06:57:53;;;;;;;50.70;28.37;;;;;;;9.56;100.00;101668.47;5075944;27;20152;-79
2022/10/13 07:00:23;;;;;;;45.38;26.48;;;;;;;9.60;100.00;101654.50;5093003;28;20316;-80
2022/10/13 07:02:51;;;;;;;50.85;26.88;;;;;;;9.64;100.00;101659.00;5098501;27;20040;-79
2022/10/13 07:05:20;;;;;;;48.90;26.48;;;;;;;9.68;100.00;101660.81;5112623;27;20043;-81
2022/10/13 07:07:51;;;;;;;48.45;27.75;;;;;;;9.72;100.00;101654.75;5075751;27;20069;-82
2022/10/13 07:10:21;;;;;;;50.55;27.92;;;;;;;9.79;100.00;101655.75;5079014;28;20028;-80
2022/10/13 07:12:49;;;;;;;55.78;29.30;;;;;;;9.84;100.00;101654.09;5115527;27;20051;-80
2022/10/13 07:15:18;;;;;;;45.72;26.92;;;;;;;9.89;100.00;101647.19;5110453;27;20031;-81
2022/10/13 07:17:52;;;;;;;58.42;29.20;;;;;;;9.93;100.00;101654.28;5075595;28;20050;-79
2022/10/13 07:20:22;;;;;;;51.47;28.15;;;;;;;9.98;100.00;101659.66;5114294;27;20042;-79
2022/10/13 07:22:53;;;;;;;54.42;29.25;;;;;;;10.00;100.00;101652.66;5062875;27;25679;-80
2022/10/13 07:25:23;;;;;;;60.25;28.58;;;;;;;10.04;100.00;101651.84;5093147;27;20511;-79
2022/10/13 07:27:52;;;;;;;47.88;27.50;;;;;;;10.10;100.00;101651.06;5108417;27;20086;-80
2022/10/13 07:30:20;;;;;;;52.28;28.40;;;;;;;10.15;100.00;101644.13;5095690;27;20032;-79
2022/10/13 07:32:49;;;;;;;49.33;28.65;;;;;;;10.20;100.00;101641.59;5076011;27;20043;-79
2022/10/13 07:35:18;;;;;;;42.90;26.10;;;;;;;10.24;100.00;101646.91;5106142;28;20047;-80
2022/10/13 07:37:47;;;;;;;46.58;26.58;;;;;;;10.29;100.00;101641.75;5039549;27;20060;-80
2022/10/13 07:40:19;;;;;;;44.25;26.52;;;;;;;10.34;100.00;101648.91;5095494;28;20412;-80
2022/10/13 07:42:47;;;;;;;45.92;26.85;;;;;;;10.40;100.00;101639.34;5075005;28;20160;-81
2022/10/13 07:45:15;;;;;;;45.95;26.95;;;;;;;10.46;100.00;101636.78;5075339;27;20530;-80
2022/10/13 07:47:44;;;;;;;50.72;25.77;;;;;;;10.51;100.00;101641.28;5075248;28;20516;-80
2022/10/13 07:50:12;;;;;;;47.00;26.42;;;;;;;10.58;100.00;101639.59;5100114;28;20154;-80
2022/10/13 07:52:40;;;;;;;45.00;26.65;;;;;;;10.64;100.00;101642.38;5032647;28;20047;-80
2022/10/13 07:55:12;;;;;;;46.95;24.98;;;;;;;10.71;100.00;101644.22;5088592;28;20035;-80
2022/10/13 07:57:40;;;;;;;43.35;24.75;;;;;;;10.73;100.00;101642.47;5106467;27;20164;-79
2022/10/13 08:00:09;;;;;;;46.15;26.50;;;;;;;10.76;100.00;101648.69;5098411;28;20040;-79
2022/10/13 08:02:41;;;;;;;35.45;22.70;;;;;;;10.77;100.00;101653.97;5106692;28;20036;-79
2022/10/13 08:05:10;;;;;;;42.03;25.30;;;;;;;10.80;100.00;101655.78;5063898;28;20047;-81
2022/10/13 08:07:38;;;;;;;39.08;23.35;;;;;;;10.80;100.00;101651.38;5059510;27;20070;-79
2022/10/13 08:10:07;;;;;;;34.67;23.50;;;;;;;10.79;100.00;101654.00;5120310;27;20052;-79
2022/10/13 08:12:36;;;;;;;39.65;23.45;;;;;;;10.79;100.00;101654.00;5088352;28;20163;-80
2022/10/13 08:15:07;;;;;;;44.58;23.77;;;;;;;10.80;100.00;101650.50;5078830;28;20035;-78
2022/10/13 08:17:35;;;;;;;37.80;23.85;;;;;;;10.79;100.00;101643.44;5093793;28;20064;-81
2022/10/13 08:20:05;;;;;;;34.08;22.63;;;;;;;10.80;100.00;101639.97;5106304;28;20048;-79
2022/10/13 08:22:33;;;;;;;36.67;23.48;;;;;;;10.79;100.00;101639.06;5101046;28;20055;-78
2022/10/13 08:25:02;;;;;;;44.67;23.80;;;;;;;10.79;100.00;101644.31;5073520;28;20032;-79
2022/10/13 08:27:30;;;;;;;39.80;23.25;;;;;;;10.77;100.00;101642.53;5078504;28;20046;-79
2022/10/13 08:30:18;;;;;;;40.58;24.10;;;;;;;10.78;100.00;101633.78;5114549;27;20685;-79
2022/10/13 08:32:48;;;;;;;35.28;21.98;;;;;;;10.79;100.00;101632.91;5091957;27;20043;-81
2022/10/13 08:35:17;;;;;;;39.10;24.73;;;;;;;10.79;100.00;101639.06;5113719;27;20058;-80
2022/10/13 08:37:46;;;;;;;37.37;24.23;;;;;;;10.82;100.00;101628.56;5091551;28;20048;-81
2022/10/13 08:40:19;;;;;;;41.17;23.05;;;;;;;10.86;100.00;101630.38;5052571;27;20865;-80
2022/10/13 08:42:48;;;;;;;37.80;22.85;;;;;;;10.90;100.00;101626.91;5091886;27;20043;-79
2022/10/13 08:45:27;;;;;;;39.80;22.65;;;;;;;10.96;100.00;101633.16;5105852;27;20403;-79
2022/10/13 08:48:31;;;;;;;38.67;22.60;;;;;;;11.00;100.00;101632.31;5088406;27;20447;-80
2022/10/13 08:51:04;;;;;;;34.65;21.33;;;;;;;10.99;100.00;101628.81;5112798;27;20051;-79
2022/10/13 08:53:40;;;;;;;35.13;21.40;;;;;;;11.02;100.00;101627.94;5098772;28;20043;-79
2022/10/13 08:56:12;;;;;;;37.28;23.05;;;;;;;11.04;100.00;101623.56;5077754;27;20212;-79
2022/10/13 08:58:42;;;;;;;35.63;20.50;;;;;;;11.07;100.00;101621.00;5098927;27;20396;-80
2022/10/13 09:01:18;;;;;;;33.20;21.38;;;;;;;11.10;100.00;101621.91;5095112;27;20073;-80
2022/10/13 09:04:09;;;;;;;37.83;22.67;;;;;;;11.16;100.00;101623.75;5084160;28;20043;-80
2022/10/13 09:06:47;;;;;;;42.72;23.73;;;;;;;11.19;100.00;101623.81;5081679;28;20040;-79
2022/10/13 09:09:16;;;;;;;40.10;23.38;;;;;;;11.23;100.00;101620.34;5086849;28;20043;-79
2022/10/13 09:11:48;;;;;;;35.63;22.30;;;;;;;11.27;100.00;101626.53;5081953;27;20043;-80
2022/10/13 09:14:36;;;;;;;35.15;22.55;;;;;;;11.30;100.00;101622.19;5100377;27;23347;-79
2022/10/13 09:17:19;;;;;;;28.35;21.88;;;;;;;11.33;100.00;101631.91;5091996;27;20043;-79
2022/10/13 09:20:06;;;;;;;37.28;22.80;;;;;;;11.36;100.00;101621.38;5100609;27;20036;-80
2022/10/13 09:22:37;;;;;;;40.22;23.65;;;;;;;11.38;100.00;101624.00;5107564;28;20405;-78
2022/10/13 09:25:05;;;;;;;39.40;23.55;;;;;;;11.39;100.00;101620.53;5105112;27;20235;-80
2022/10/13 09:28:07;;;;;;;40.78;23.85;;;;;;;11.42;100.00;101624.09;5069966;27;20035;-79
2022/10/13 09:30:45;;;;;;;35.33;23.52;;;;;;;11.46;100.00;101623.25;5113783;27;20046;-81
2022/10/13 09:33:19;;;;;;;39.10;23.63;;;;;;;11.50;100.00;101629.47;5086369;27;20287;-81
2022/10/13 09:36:05;;;;;;;36.75;22.83;;;;;;;11.55;100.00;101625.13;5083531;28;20043;-84
2022/10/13 09:38:33;;;;;;;32.72;22.95;;;;;;;11.58;100.00;101625.16;5105940;27;20052;-81
2022/10/13 09:41:19;;;;;;;36.03;23.17;;;;;;;11.63;100.00;101626.09;5041086;27;20621;-82
2022/10/13 09:43:47;;;;;;;44.75;25.30;;;;;;;11.68;100.00;101619.13;5075047;27;20036;-83
2022/10/13 09:46:45;;;;;;;48.00;26.95;;;;;;;11.74;100.00;101626.22;5124079;27;20043;-82
2022/10/13 09:49:31;;;;;;;42.28;25.13;;;;;;;11.79;100.00;101627.13;5091306;27;20251;-84
2022/10/13 09:52:15;;;;;;;42.63;25.05;;;;;;;11.83;100.00;101628.06;5116968;27;20176;-82
2022/10/13 09:54:48;;;;;;;32.92;23.25;;;;;;;11.87;100.00;101629.84;5109623;27;20040;-82
2022/10/13 09:57:30;;;;;;;41.70;27.73;;;;;;;11.88;100.00;101634.28;5068038;27;20027;-82
2022/10/13 10:00:25;;;;;;;43.63;24.70;;;;;;;11.90;100.00;101630.81;5084871;28;20222;-82
2022/10/13 10:03:15;;;;;;;40.80;25.48;;;;;;;11.92;100.00;101636.09;5100678;27;20062;-82
2022/10/13 10:05:54;;;;;;;47.35;26.88;;;;;;;11.93;100.00;101634.34;5076315;27;20038;-82
2022/10/13 10:08:27;;;;;;;46.78;27.88;;;;;;;11.93;100.00;101626.41;5116769;27;20051;-82
2022/10/13 10:11:26;;;;;;;42.65;27.85;;;;;;;11.92;100.00;101620.25;5102327;27;20066;-82
2022/10/13 10:13:56;;;;;;;48.67;28.70;;;;;;;11.93;100.00;101615.84;5059072;28;20032;-83
2022/10/13 10:16:40;;;;;;;44.60;29.65;;;;;;;11.95;100.00;101620.31;5104565;27;20040;-81
2022/10/13 10:19:36;;;;;;;49.95;28.90;;;;;;;11.98;100.00;101617.66;5093817;27;20051;-83
2022/10/13 10:22:12;;;;;;;46.13;28.35;;;;;;;12.01;100.00;101617.72;5110374;27;20347;-83
2022/10/13 10:25:17;;;;;;;49.97;28.40;;;;;;;12.07;100.00;101615.13;5055699;28;20050;-85
2022/10/13 10:28:06;;;;;;;44.35;28.85;;;;;;;12.11;100.00;101608.09;5074381;27;20048;-81
2022/10/13 10:30:43;;;;;;;50.97;30.27;;;;;;;12.15;100.00;101607.25;5096203;27;20039;-82
2022/10/13 10:33:18;;;;;;;51.45;29.83;;;;;;;12.17;100.00;101605.50;5107853;27;20160;-78
2022/10/13 10:36:15;;;;;;;45.35;29.08;;;;;;;12.23;100.00;101604.69;5087161;28;20492;-82
2022/10/13 10:38:47;;;;;;;52.13;29.63;;;;;;;12.29;100.00;101602.13;5096353;28;20510;-80
2022/10/13 10:41:36;;;;;;;40.42;27.80;;;;;;;12.34;100.00;101616.22;5095235;27;20054;-81
2022/10/13 10:44:23;;;;;;;51.60;31.40;;;;;;;12.38;100.00;101602.19;5059474;28;20264;-80
2022/10/13 10:46:58;;;;;;;49.85;28.92;;;;;;;12.41;100.00;101603.97;5075151;27;20035;-80
2022/10/13 10:49:33;;;;;;;50.42;29.08;;;;;;;12.41;100.00;101612.78;5113049;27;20042;-80
2022/10/13 10:52:15;;;;;;;45.15;28.60;;;;;;;12.41;100.00;101612.78;5100136;27;20042;-81
2022/10/13 10:55:14;;;;;;;46.45;28.70;;;;;;;12.42;100.00;101613.66;5100477;27;20234;-84
2022/10/13 10:58:11;;;;;;;49.42;28.33;;;;;;;12.40;100.00;101608.38;5106808;27;20055;-82
2022/10/13 11:01:29;;;;;;;43.22;26.77;;;;;;;12.40;100.00;101599.53;5101075;27;20354;-82
2022/10/13 11:04:32;;;;;;;45.72;27.42;;;;;;;12.41;100.00;101598.69;5107090;27;20039;-82
2022/10/13 11:07:02;;;;;;;40.58;26.30;;;;;;;12.40;100.00;101599.53;5097259;27;20380;-83
2022/10/13 11:09:40;;;;;;;42.42;26.30;;;;;;;12.40;100.00;101596.88;5090580;27;20039;-83
2022/10/13 11:12:17;;;;;;;47.67;27.40;;;;;;;12.42;100.00;101588.13;5110453;27;20047;-83
2022/10/13 11:15:00;;;;;;;37.70;23.73;;;;;;;12.43;100.00;101594.28;5079491;27;20239;-82
2022/10/13 11:17:31;;;;;;;37.67;24.70;;;;;;;12.46;100.00;101594.31;5104193;27;20043;-82
2022/10/13 11:20:24;;;;;;;40.38;25.85;;;;;;;12.48;100.00;101587.28;5097750;27;20488;-83
2022/10/13 11:22:58;;;;;;;39.15;25.33;;;;;;;12.52;100.00;101585.53;5124938;27;20068;-82
2022/10/13 11:25:40;;;;;;;39.05;25.83;;;;;;;12.55;100.00;101582.91;5106756;27;20046;-82
2022/10/13 11:28:20;;;;;;;40.45;26.05;;;;;;;12.57;100.00;101586.44;5094153;28;20148;-82
2022/10/13 11:30:50;;;;;;;;;;;;;;;12.57;100.00;101571.50;5074011;28;20058;-82
2022/10/13 11:33:37;;;;;;;40.88;24.85;;;;;;;12.56;100.00;101569.69;5080905;27;20419;-84
2022/10/13 11:36:34;;;;;;;36.08;24.52;;;;;;;12.57;100.00;101567.94;5097559;27;20047;-82
2022/10/13 11:39:32;;;;;;;36.20;25.33;;;;;;;12.58;100.00;101570.59;5100189;27;20408;-82
2022/10/13 11:42:31;;;;;;;35.28;24.35;;;;;;;12.60;100.00;101575.91;5094490;27;20051;-82